createdAt,value
2022-10-14T00:00:44.910Z,99647.94
2022-10-14T00:03:11.740Z,99649.00
2022-10-14T00:05:42.125Z,99644.88
2022-10-14T00:08:09.759Z,99643.78
2022-10-14T00:10:40.607Z,99651.75
2022-10-14T00:13:07.447Z,99646.59
2022-10-14T00:15:38.958Z,99637.28
2022-10-14T00:18:06.788Z,99634.06
2022-10-14T00:20:33.561Z,99637.38
2022-10-14T00:23:00.736Z,99645.59
2022-10-14T00:25:28.272Z,99642.59
2022-10-14T00:27:55.384Z,99644.53
2022-10-14T00:30:22.803Z,99645.09
2022-10-14T00:32:49.620Z,99640.19
2022-10-14T00:35:16.383Z,99643.75
2022-10-14T00:37:43.155Z,99636.63
2022-10-14T00:40:10.490Z,99641.84
2022-10-14T00:42:37.120Z,99627.31
2022-10-14T00:45:19.988Z,99627.31
2022-10-14T00:47:49.172Z,99627.56
2022-10-14T00:50:17.168Z,99616.84
2022-10-14T00:52:44.791Z,99616.03
2022-10-14T00:55:17.655Z,99606.16
2022-10-14T00:57:45.229Z,99612.13
2022-10-14T01:00:16.214Z,99611.31
2022-10-14T01:02:43.241Z,99608.25
2022-10-14T01:05:12.220Z,99598.38
2022-10-14T01:08:00.925Z,99592.88
2022-10-14T01:11:00.702Z,99592.31
2022-10-14T01:13:31.973Z,99590.41
2022-10-14T01:16:16.597Z,99586.25
2022-10-14T01:19:14.605Z,99589.25
2022-10-14T01:21:51.874Z,99587.59
2022-10-14T01:24:21.848Z,99584.28
2022-10-14T01:27:19.625Z,99588.38
2022-10-14T01:30:00.025Z,99585.63
2022-10-14T01:32:57.124Z,99587.28
2022-10-14T01:35:38.239Z,99576.31
2022-10-14T01:38:11.578Z,99580.16
2022-10-14T01:41:10.646Z,99571.41
2022-10-14T01:43:43.579Z,99572.75
2022-10-14T01:46:12.951Z,99574.66
2022-10-14T01:48:44.198Z,99564.53
2022-10-14T01:51:16.160Z,99556.88
2022-10-14T01:53:49.132Z,99554.13
2022-10-14T01:56:17.672Z,99550.63
2022-10-14T01:58:46.017Z,99551.22
2022-10-14T02:01:12.902Z,99543.56
2022-10-14T02:03:45.274Z,99541.16
2022-10-14T02:06:26.868Z,99532.41
2022-10-14T02:09:20.005Z,99542.53
2022-10-14T02:11:52.648Z,99528.59
2022-10-14T02:14:43.411Z,99526.69
2022-10-14T02:17:22.733Z,99520.44
2022-10-14T02:19:55.666Z,99524.56
2022-10-14T02:22:35.823Z,99511.44
2022-10-14T02:25:09.425Z,99512.53
2022-10-14T02:27:37.854Z,99507.63
2022-10-14T02:30:05.811Z,99504.38
2022-10-14T02:32:35.554Z,99509.84
2022-10-14T02:35:05.920Z,99504.94
2022-10-14T02:37:33.722Z,99504.94
2022-10-14T02:40:07.259Z,99486.56
2022-10-14T02:42:33.998Z,99481.34
2022-10-14T02:45:01.430Z,99475.06
2022-10-14T02:47:28.427Z,99460.75
2022-10-14T02:49:55.905Z,99467.66
2022-10-14T02:52:23.009Z,99456.97
2022-10-14T02:54:49.852Z,99459.69
2022-10-14T02:57:18.130Z,99458.59
2022-10-14T02:59:44.920Z,99455.53
2022-10-14T03:02:11.631Z,99452.81
2022-10-14T03:04:38.278Z,99457.19
2022-10-14T03:07:05.879Z,99440.75
2022-10-14T03:09:32.579Z,99423.75
2022-10-14T03:11:59.279Z,99427.03
2022-10-14T03:14:25.987Z,99431.69
2022-10-14T03:16:52.621Z,99432.53
2022-10-14T03:19:19.277Z,99438.63
2022-10-14T03:21:45.961Z,99429.63
2022-10-14T03:24:12.947Z,99429.38
2022-10-14T03:26:39.591Z,99425.53
2022-10-14T03:29:06.344Z,99413.25
2022-10-14T03:31:32.965Z,99425.03
2022-10-14T03:34:00.936Z,99416.28
2022-10-14T03:36:27.594Z,99419.34
2022-10-14T03:38:54.235Z,99406.75
2022-10-14T03:41:21.056Z,99402.97
2022-10-14T03:43:47.939Z,99401.13
2022-10-14T03:46:17.998Z,99407.75
2022-10-14T03:48:46.237Z,99408.28
2022-10-14T03:51:12.999Z,99407.50
2022-10-14T03:53:39.700Z,99398.75
2022-10-14T03:56:06.784Z,99402.91
2022-10-14T03:58:33.414Z,99389.22
2022-10-14T04:01:00.572Z,99399.91
2022-10-14T04:03:27.291Z,99399.41
2022-10-14T04:05:53.978Z,99392.53
2022-10-14T04:08:20.612Z,99396.41
2022-10-14T04:10:55.198Z,99402.22
2022-10-14T04:13:22.620Z,99403.59
2022-10-14T04:15:50.061Z,99401.72
2022-10-14T04:18:17.101Z,99395.94
2022-10-14T04:20:43.920Z,99390.19
2022-10-14T04:23:10.871Z,99382.53
2022-10-14T04:25:39.381Z,99383.06
2022-10-14T04:28:06.424Z,99387.22
2022-10-14T04:30:33.252Z,99377.63
2022-10-14T04:32:59.887Z,99372.13
2022-10-14T04:35:26.522Z,99373.53
2022-10-14T04:37:53.171Z,99371.31
2022-10-14T04:40:24.450Z,99366.41
2022-10-14T04:42:55.068Z,99368.06
2022-10-14T04:45:21.986Z,99358.47
2022-10-14T04:47:50.813Z,99363.13
2022-10-14T04:50:18.499Z,99357.66
2022-10-14T04:52:45.244Z,99356.28
2022-10-14T04:55:12.335Z,99352.44
2022-10-14T04:57:43.890Z,99355.75
2022-10-14T05:00:12.383Z,99355.22
2022-10-14T05:02:39.086Z,99348.06
2022-10-14T05:05:06.436Z,99349.72
2022-10-14T05:07:34.083Z,99344.25
2022-10-14T05:10:04.943Z,99339.81
2022-10-14T05:12:32.755Z,99337.88
2022-10-14T05:14:59.875Z,99324.75
2022-10-14T05:17:26.564Z,99330.50
2022-10-14T05:19:55.328Z,99329.66
2022-10-14T05:22:22.222Z,99323.63
2022-10-14T05:24:49.290Z,99325.03
2022-10-14T05:27:15.968Z,99330.22
2022-10-14T05:29:42.607Z,99319.25
2022-10-14T05:32:09.798Z,99305.78
2022-10-14T05:34:36.452Z,99310.44
2022-10-14T05:37:05.865Z,99294.81
2022-10-14T05:39:32.525Z,99294.25
2022-10-14T05:41:59.154Z,99269.25
2022-10-14T05:44:25.920Z,99261.00
2022-10-14T05:46:52.603Z,99260.75
2022-10-14T05:49:19.203Z,99261.56
2022-10-14T05:51:45.987Z,99257.19
2022-10-14T05:54:13.628Z,99266.50
2022-10-14T05:56:41.718Z,99264.31
2022-10-14T05:59:12.747Z,99264.31
2022-10-14T06:01:40.920Z,99267.59
2022-10-14T06:04:08.258Z,99267.59
2022-10-14T06:06:38.444Z,99268.13
2022-10-14T06:09:08.985Z,99273.91
2022-10-14T06:11:37.888Z,99272.56
2022-10-14T06:14:05.445Z,99271.47
2022-10-14T06:16:32.475Z,99271.47
2022-10-14T06:18:59.147Z,99275.84
2022-10-14T06:21:26.334Z,99267.34
2022-10-14T06:23:52.991Z,99266.50
2022-10-14T06:26:19.653Z,99280.81
2022-10-14T06:28:47.075Z,99286.00
2022-10-14T06:31:13.905Z,99278.06
2022-10-14T06:33:40.606Z,99285.75
2022-10-14T06:36:08.153Z,99286.00
2022-10-14T06:38:35.031Z,99280.00
2022-10-14T06:41:01.707Z,99289.59
2022-10-14T06:43:28.294Z,99287.94
2022-10-14T06:45:57.482Z,99279.72
2022-10-14T06:48:24.857Z,99277.78
2022-10-14T06:50:52.158Z,99275.88
2022-10-14T06:53:19.026Z,99282.22
2022-10-14T06:55:46.305Z,99282.22
2022-10-14T06:58:12.977Z,99290.44
2022-10-14T07:00:42.152Z,99287.41
2022-10-14T07:03:11.044Z,99284.41
2022-10-14T07:05:37.707Z,99281.41
2022-10-14T07:08:04.317Z,99287.44
2022-10-14T07:10:30.919Z,99289.66
2022-10-14T07:12:57.510Z,99285.78
2022-10-14T07:15:24.309Z,99286.09
2022-10-14T07:17:51.124Z,99281.66
2022-10-14T07:20:17.844Z,99278.91
2022-10-14T07:22:44.702Z,99288.00
2022-10-14T07:25:12.018Z,99291.00
2022-10-14T07:27:38.635Z,99295.69
2022-10-14T07:30:06.522Z,99293.75
2022-10-14T07:32:37.058Z,99290.75
2022-10-14T07:35:04.765Z,99289.94
2022-10-14T07:37:32.265Z,99289.09
2022-10-14T07:39:59.060Z,99298.72
2022-10-14T07:42:25.824Z,99298.19
2022-10-14T07:44:54.431Z,99297.38
2022-10-14T07:47:22.186Z,99307.78
2022-10-14T07:49:49.035Z,99314.09
2022-10-14T07:52:19.731Z,99320.47
2022-10-14T07:54:47.932Z,99313.03
2022-10-14T07:57:14.827Z,99318.78
2022-10-14T07:59:41.642Z,99312.22
2022-10-14T08:02:08.338Z,99316.59
2022-10-14T08:04:35.146Z,99318.25
2022-10-14T08:07:06.244Z,99319.06
2022-10-14T08:13:34.244Z,99323.22
2022-10-14T08:16:00.971Z,99319.94
2022-10-14T08:18:28.368Z,99316.91
2022-10-14T08:20:55.071Z,99321.59
2022-10-14T08:23:21.910Z,99324.06
2022-10-14T08:25:49.949Z,99320.47
2022-10-14T08:28:16.806Z,99318.34
2022-10-14T08:30:43.753Z,99314.47
2022-10-14T08:33:10.409Z,99321.09
2022-10-14T08:35:39.382Z,99322.72
2022-10-14T08:38:06.243Z,99331.81
2022-10-14T08:40:46.494Z,99324.38
2022-10-14T08:43:33.489Z,99320.00
2022-10-14T08:46:39.955Z,99322.72
2022-10-14T08:49:27.871Z,99324.66
2022-10-14T08:52:06.592Z,99325.47
2022-10-14T08:54:43.637Z,99320.50
2022-10-14T08:57:22.938Z,99315.56
2022-10-14T08:59:49.602Z,99317.22
2022-10-14T09:02:38.104Z,99308.69
2022-10-14T09:05:06.634Z,99303.44
2022-10-14T09:07:35.616Z,99312.81
2022-10-14T09:10:07.715Z,99307.31
2022-10-14T09:12:35.985Z,99297.09
2022-10-14T09:15:16.951Z,99304.53
2022-10-14T09:17:50.918Z,99308.13
2022-10-14T09:20:23.530Z,99311.94
2022-10-14T09:23:20.490Z,99308.94
2022-10-14T09:25:52.724Z,99301.22
2022-10-14T09:28:19.622Z,99296.53
2022-10-14T09:30:46.544Z,99299.03
2022-10-14T09:33:20.754Z,99303.97
2022-10-14T09:35:48.851Z,99296.53
2022-10-14T09:38:16.597Z,99298.47
2022-10-14T09:40:45.760Z,99286.09
2022-10-14T09:43:27.034Z,99296.84
2022-10-14T09:46:00.422Z,99295.75
2022-10-14T09:48:48.617Z,99301.25
2022-10-14T09:51:23.382Z,99293.00
2022-10-14T09:53:56.235Z,99297.16
2022-10-14T09:56:42.206Z,99286.16
2022-10-14T09:59:21.535Z,99286.69
2022-10-14T10:01:54.914Z,99286.16
2022-10-14T10:04:37.239Z,99288.09
2022-10-14T10:07:07.536Z,99273.22
2022-10-14T10:09:34.857Z,99282.53
2022-10-14T10:12:29.111Z,99275.38
2022-10-14T10:15:00.685Z,99263.78
2022-10-14T10:17:30.364Z,99260.16
2022-10-14T10:20:18.738Z,99265.34
2022-10-14T10:22:46.265Z,99264.53
2022-10-14T10:25:12.890Z,99264.53
2022-10-14T10:27:39.786Z,99276.38
2022-10-14T10:30:18.928Z,99284.59
2022-10-14T10:32:55.099Z,99283.41
2022-10-14T10:35:48.147Z,99284.22
2022-10-14T10:38:37.593Z,99278.69
2022-10-14T10:41:28.506Z,99277.84
2022-10-14T10:44:07.208Z,99276.22
2022-10-14T10:46:55.254Z,99274.50
2022-10-14T10:49:22.042Z,99260.44
2022-10-14T10:52:02.209Z,99270.63
2022-10-14T10:54:38.298Z,99261.81
2022-10-14T10:57:25.361Z,99257.97
2022-10-14T11:00:12.670Z,99249.94
2022-10-14T11:02:57.443Z,99244.38
2022-10-14T11:05:42.036Z,99240.16
2022-10-14T11:08:49.346Z,99235.94
2022-10-14T11:11:50.269Z,99231.50
2022-10-14T11:14:57.726Z,99223.78
2022-10-14T11:17:44.379Z,99212.97
2022-10-14T11:20:34.501Z,99215.66
2022-10-14T11:23:22.506Z,99217.22
2022-10-14T11:26:11.226Z,99206.19
2022-10-14T11:29:00.706Z,99191.81
2022-10-14T11:31:46.318Z,99202.03
2022-10-14T11:34:15.918Z,99201.41
2022-10-14T11:36:55.567Z,99212.13
2022-10-14T11:39:47.144Z,99196.47
2022-10-14T11:42:24.767Z,99205.56
2022-10-14T11:45:20.456Z,99197.47
2022-10-14T11:47:51.555Z,99198.84
2022-10-14T11:50:26.604Z,99206.66
2022-10-14T11:53:13.797Z,99203.03
2022-10-14T11:55:46.815Z,99199.88
2022-10-14T11:58:24.392Z,99204.44
2022-10-14T12:01:00.483Z,99185.13
2022-10-14T12:03:44.070Z,99183.97
2022-10-14T12:06:29.714Z,99178.78
2022-10-14T12:09:28.201Z,99168.34
2022-10-14T12:12:04.004Z,99166.13
2022-10-14T12:14:43.463Z,99157.59
2022-10-14T12:17:34.196Z,99160.59
2022-10-14T12:20:28.754Z,99160.41
2022-10-14T12:22:58.329Z,99151.66
2022-10-14T12:25:30.875Z,99155.34
2022-10-14T12:27:58.256Z,99145.03
2022-10-14T12:30:32.708Z,99154.75
2022-10-14T12:33:05.545Z,99144.59
2022-10-14T12:35:49.492Z,99152.00
2022-10-14T12:38:16.400Z,99140.34
2022-10-14T12:40:43.100Z,99152.13
2022-10-14T12:43:20.417Z,99141.53
2022-10-14T12:45:56.984Z,99140.22
2022-10-14T12:48:27.790Z,99144.53
2022-10-14T12:51:17.527Z,99136.44
2022-10-14T12:53:58.172Z,99130.63
2022-10-14T12:56:39.186Z,99127.44
2022-10-14T12:59:29.432Z,99132.88
2022-10-14T13:01:59.575Z,99119.78
2022-10-14T13:04:27.590Z,99112.63
2022-10-14T13:07:45.574Z,99113.72
2022-10-14T13:10:40.532Z,99112.81
2022-10-14T13:13:53.301Z,99109.72
2022-10-14T13:16:25.968Z,99099.72
2022-10-14T13:19:00.897Z,99103.19
2022-10-14T13:21:52.151Z,99096.56
2022-10-14T13:24:32.477Z,99090.63
2022-10-14T13:27:47.834Z,99085.00
2022-10-14T13:30:34.643Z,99079.00
2022-10-14T13:33:10.752Z,99080.03
2022-10-14T13:35:56.584Z,99089.53
2022-10-14T13:38:24.290Z,99088.06
2022-10-14T13:40:54.278Z,99087.19
2022-10-14T13:43:39.331Z,99089.22
2022-10-14T13:46:16.056Z,99087.75
2022-10-14T13:48:47.178Z,99082.88
2022-10-14T13:51:31.852Z,99072.56
2022-10-14T13:54:16.286Z,99072.94
2022-10-14T13:56:43.644Z,99060.38
2022-10-14T13:59:43.355Z,99072.25
2022-10-14T14:02:15.475Z,99067.25
2022-10-14T14:04:49.853Z,99069.25
2022-10-14T14:07:47.793Z,99065.41
2022-10-14T14:10:10.998Z,99055.03
2022-10-14T14:12:42.618Z,99058.97
2022-10-14T14:15:21.567Z,99059.44
2022-10-14T14:17:48.190Z,99053.31
2022-10-14T14:20:20.558Z,99058.94
2022-10-14T14:22:47.297Z,99057.69
2022-10-14T14:25:38.205Z,99065.78
2022-10-14T14:28:13.530Z,99057.59
2022-10-14T14:30:40.194Z,99051.03
2022-10-14T14:33:11.196Z,99051.75
2022-10-14T14:35:38.339Z,99049.97
2022-10-14T14:38:04.987Z,99051.19
2022-10-14T14:40:32.047Z,99053.25
2022-10-14T14:43:00.954Z,99051.69
2022-10-14T14:45:31.111Z,99042.34
2022-10-14T14:48:01.711Z,99032.84
2022-10-14T14:50:33.977Z,99037.25
2022-10-14T14:53:21.362Z,99032.31
2022-10-14T14:55:53.730Z,99030.69
2022-10-14T14:58:35.902Z,99025.38
2022-10-14T15:01:03.499Z,99021.47
2022-10-14T15:03:33.162Z,99029.78
2022-10-14T15:06:02.913Z,99026.78
2022-10-14T15:08:34.287Z,99021.06
2022-10-14T15:11:01.914Z,99017.41
2022-10-14T15:13:44.788Z,99017.41
2022-10-14T15:16:12.024Z,99014.09
2022-10-14T15:18:41.203Z,99007.75
2022-10-14T15:21:20.451Z,98999.16
2022-10-14T15:23:50.418Z,98989.75
2022-10-14T15:26:22.230Z,98997.50
2022-10-14T15:29:04.266Z,98997.50
2022-10-14T15:31:31.154Z,98993.72
2022-10-14T15:33:57.912Z,99002.63
2022-10-14T15:36:25.162Z,98993.31
2022-10-14T15:38:56.487Z,98991.66
2022-10-14T15:41:23.432Z,98993.91
2022-10-14T15:43:51.769Z,98984.59
2022-10-14T15:46:37.597Z,98991.25
2022-10-14T15:49:14.289Z,98989.91
2022-10-14T15:51:41.221Z,98992.16
2022-10-14T15:54:12.552Z,98993.56
2022-10-14T15:56:41.996Z,98978.44
2022-10-14T15:59:08.601Z,98992.94
2022-10-14T16:01:38.426Z,98988.84
2022-10-14T16:04:18.349Z,98980.88
2022-10-14T16:06:46.197Z,98987.78
2022-10-14T16:09:13.707Z,98990.56
2022-10-14T16:11:40.560Z,98990.06
2022-10-14T16:14:08.823Z,98989.84
2022-10-14T16:16:40.604Z,98992.09
2022-10-14T16:19:07.264Z,99001.50
2022-10-14T16:21:33.945Z,99017.22
2022-10-14T16:24:02.276Z,99015.06
2022-10-14T16:26:29.490Z,99017.56
2022-10-14T16:28:56.510Z,99017.25
2022-10-14T16:31:23.820Z,99018.47
2022-10-14T16:33:51.517Z,99020.25
2022-10-14T16:36:18.619Z,99019.03
2022-10-14T16:38:45.988Z,99026.22
2022-10-14T16:41:13.037Z,99030.84
2022-10-14T16:43:39.885Z,99026.50
2022-10-14T16:46:10.377Z,99029.84
2022-10-14T16:48:40.353Z,99027.88
2022-10-14T16:51:07.200Z,99022.44
2022-10-14T16:53:48.797Z,99024.50
2022-10-14T16:56:39.220Z,99027.00
2022-10-14T16:59:08.255Z,99021.31
2022-10-14T17:01:35.263Z,99016.97
2022-10-14T17:04:02.477Z,99029.13
2022-10-14T17:06:29.287Z,99027.03
2022-10-14T17:08:56.225Z,99026.63
2022-10-14T17:11:24.340Z,99030.53
2022-10-14T17:13:52.396Z,99028.66
2022-10-14T17:16:19.463Z,99033.03
2022-10-14T17:18:46.515Z,99037.94
2022-10-14T17:21:13.927Z,99037.44
2022-10-14T17:23:42.749Z,99039.44
2022-10-14T17:26:13.356Z,99030.97
2022-10-14T17:28:42.103Z,99030.19
2022-10-14T17:31:15.220Z,99022.75
2022-10-14T17:33:43.847Z,99031.28
2022-10-14T17:36:19.751Z,99025.25
2022-10-14T17:38:48.144Z,99033.50
2022-10-14T17:41:15.287Z,99036.56
2022-10-14T17:43:41.959Z,99039.38
2022-10-14T17:46:13.340Z,99043.78
2022-10-14T17:48:42.453Z,99038.03
2022-10-14T17:51:10.689Z,99047.13
2022-10-14T17:53:38.487Z,99046.91
2022-10-14T17:56:13.511Z,99051.28
2022-10-14T17:58:41.024Z,99050.50
2022-10-14T18:01:10.924Z,99045.53
2022-10-14T18:03:42.014Z,99041.41
2022-10-14T18:06:20.766Z,99045.00
2022-10-14T18:08:53.130Z,99048.31
2022-10-14T18:11:20.986Z,99054.66
2022-10-14T18:13:59.198Z,99042.59
2022-10-14T18:16:33.718Z,99047.00
2022-10-14T18:19:09.336Z,99048.09
2022-10-14T18:21:37.851Z,99048.91
2022-10-14T18:24:05.953Z,99043.44
2022-10-14T18:26:34.750Z,99047.28
2022-10-14T18:29:01.844Z,99048.13
2022-10-14T18:31:30.295Z,99040.69
2022-10-14T18:33:58.715Z,99040.13
2022-10-14T18:36:28.603Z,99034.38
2022-10-14T18:38:58.010Z,99029.16
2022-10-14T18:41:26.033Z,99033.88
2022-10-14T18:43:54.593Z,99026.47
2022-10-14T18:46:23.749Z,99036.06
2022-10-14T18:48:52.865Z,99041.31
2022-10-14T18:51:25.639Z,99041.31
2022-10-14T18:53:56.582Z,99040.22
2022-10-14T18:56:26.951Z,99035.25
2022-10-14T18:58:59.727Z,99033.09
2022-10-14T19:01:27.005Z,99041.84
2022-10-14T19:03:54.382Z,99042.13
2022-10-14T19:06:22.117Z,99036.34
2022-10-14T19:08:50.803Z,99030.84
2022-10-14T19:11:23.797Z,99029.72
2022-10-14T19:13:53.009Z,99033.31
2022-10-14T19:16:30.919Z,99028.91
2022-10-14T19:19:14.836Z,99035.00
2022-10-14T19:21:44.049Z,99030.03
2022-10-14T19:24:12.486Z,99032.22
2022-10-14T19:26:42.204Z,99032.75
2022-10-14T19:29:11.715Z,99023.41
2022-10-14T19:31:39.368Z,99019.84
2022-10-14T19:34:08.798Z,99012.44
2022-10-14T19:36:37.174Z,99019.31
2022-10-14T19:39:05.257Z,99007.78
2022-10-14T19:41:34.789Z,99006.69
2022-10-14T19:44:02.021Z,99001.53
2022-10-14T19:46:29.904Z,98997.97
2022-10-14T19:49:02.463Z,98997.72
2022-10-14T19:51:29.696Z,99008.97
2022-10-14T19:53:57.404Z,99004.59
2022-10-14T19:56:25.560Z,99007.31
2022-10-14T19:58:57.085Z,99006.22
2022-10-14T20:01:25.790Z,99003.47
2022-10-14T20:03:53.682Z,98998.53
2022-10-14T20:06:22.073Z,98992.50
2022-10-14T20:08:50.040Z,98985.66
2022-10-14T20:11:19.820Z,98993.88
2022-10-14T20:13:46.674Z,98981.56
2022-10-14T20:16:14.536Z,98989.53
2022-10-14T20:18:42.270Z,98988.16
2022-10-14T20:21:12.563Z,98988.69
2022-10-14T20:23:40.003Z,98989.25
2022-10-14T20:26:09.161Z,98993.66
2022-10-14T20:28:36.675Z,99007.38
2022-10-14T20:31:07.926Z,98989.00
2022-10-14T20:33:35.026Z,98988.16
2022-10-14T20:36:04.911Z,98985.16
2022-10-14T20:38:31.887Z,98988.72
2022-10-14T20:41:28.604Z,98992.00
2022-10-14T20:43:56.460Z,98991.91
2022-10-14T20:46:25.159Z,98980.41
2022-10-14T20:48:56.379Z,98980.13
2022-10-14T20:51:23.978Z,98977.91
2022-10-14T20:53:58.559Z,98974.88
2022-10-14T20:56:31.294Z,98972.13
2022-10-14T20:58:59.348Z,98972.94
2022-10-14T21:01:28.346Z,98963.91
2022-10-14T21:03:55.899Z,98973.75
2022-10-14T21:06:24.460Z,98960.34
2022-10-14T21:08:51.915Z,98957.09
2022-10-14T21:11:23.130Z,98954.09
2022-10-14T21:13:53.462Z,98954.09
2022-10-14T21:16:31.825Z,98955.75
2022-10-14T21:19:02.879Z,98947.81
2022-10-14T21:21:33.641Z,98955.22
2022-10-14T21:24:00.388Z,98949.72
2022-10-14T21:26:28.769Z,98945.88
2022-10-14T21:28:55.999Z,98944.22
2022-10-14T21:31:22.831Z,98951.38
2022-10-14T21:33:56.240Z,98954.94
2022-10-14T21:36:24.722Z,98956.84
2022-10-14T21:38:51.853Z,98952.22
2022-10-14T21:41:18.892Z,98953.03
2022-10-14T21:43:45.982Z,98960.72
2022-10-14T21:46:15.125Z,98953.31
2022-10-14T21:48:43.213Z,98948.94
2022-10-14T21:51:13.821Z,98941.28
2022-10-14T21:53:41.983Z,98936.84
2022-10-14T21:56:10.439Z,98932.75
2022-10-14T21:58:38.366Z,98934.09
2022-10-14T22:01:11.683Z,98934.09
2022-10-14T22:03:40.363Z,98928.09
2022-10-14T22:06:17.924Z,98927.81
2022-10-14T22:08:49.640Z,98913.56
2022-10-14T22:11:30.515Z,98920.13
2022-10-14T22:14:01.352Z,98908.91
2022-10-14T22:16:29.291Z,98916.84
2022-10-14T22:18:59.610Z,98906.41
2022-10-14T22:21:30.594Z,98902.03
2022-10-14T22:23:58.750Z,98900.94
2022-10-14T22:26:27.118Z,98901.47
2022-10-14T22:29:01.217Z,98900.38
2022-10-14T22:31:29.205Z,98891.63
2022-10-14T22:33:56.024Z,98888.88
2022-10-14T22:36:25.240Z,98889.16
2022-10-14T22:38:53.464Z,98893.25
2022-10-14T22:41:22.256Z,98887.50
2022-10-14T22:43:57.428Z,98879.50
2022-10-14T22:46:29.840Z,98884.47
2022-10-14T22:48:58.460Z,98879.78
2022-10-14T22:51:36.297Z,98875.94
2022-10-14T22:54:03.694Z,98863.88
2022-10-14T22:56:31.811Z,98861.97
2022-10-14T22:59:02.074Z,98840.03
2022-10-14T23:01:29.665Z,98840.84
2022-10-14T23:03:57.816Z,98834.25
2022-10-14T23:06:25.501Z,98828.47
2022-10-14T23:08:52.318Z,98828.47
2022-10-14T23:11:21.377Z,98820.53
2022-10-14T23:13:48.411Z,98815.56
2022-10-14T23:16:20.564Z,98804.34
2022-10-14T23:18:48.436Z,98807.34
2022-10-14T23:21:18.803Z,98802.69
2022-10-14T23:23:46.544Z,98802.13
2022-10-14T23:26:16.277Z,98802.69
2022-10-14T23:28:43.869Z,98793.34
2022-10-14T23:31:13.009Z,98798.56
2022-10-14T23:33:40.246Z,98803.50
2022-10-14T23:36:09.649Z,98801.84
2022-10-14T23:38:36.785Z,98793.34
2022-10-14T23:41:05.742Z,98769.78
2022-10-14T23:43:33.903Z,98764.00
2022-10-14T23:46:00.958Z,98765.09
2022-10-14T23:48:28.288Z,98768.66
2022-10-14T23:50:55.573Z,98752.72
2022-10-14T23:53:22.676Z,98760.41
2022-10-14T23:55:49.649Z,98762.03
2022-10-14T23:58:16.434Z,98763.69
